Time;durP1;ratioP1;P1;durP2;ratioP2;P2;SDS_P1;SDS_P2;PMS_P1;PMS_P2;Temp;Humidity;BMP_temperature;BMP_pressure;BME280_temperature;BME280_humidity;BME280_pressure;Samples;Min_cycle;Max_cycle;Signal;HPM_P1;HPM_P2
2021/05/15 00:00:44;;;;;;;0.10;0.10;;;;;;;;;;5125221;28;20210;-68
2021/05/15 00:03:10;;;;;;;0.10;0.10;;;;;;;;;;5125182;28;20492;-68
2021/05/15 00:05:35;;;;;;;0.10;0.10;;;;;;;;;;5127112;27;20298;-68
2021/05/15 00:08:03;;;;;;;0.10;0.10;;;;;;;;;;5125137;28;20214;-68
2021/05/15 00:10:29;;;;;;;0.10;0.10;;;;;;;;;;5125620;28;20213;-68
2021/05/15 00:12:55;;;;;;;0.10;0.10;;;;;;;;;;5124082;28;20269;-69
2021/05/15 00:15:22;;;;;;;0.10;0.10;;;;;;;;;;5125132;28;20354;-69
2021/05/15 00:17:48;;;;;;;0.10;0.10;;;;;;;;;;5125074;28;20208;-68
2021/05/15 00:20:15;;;;;;;0.10;0.10;;;;;;;;;;5124464;28;20286;-70
2021/05/15 00:22:41;;;;;;;0.17;0.17;;;;;;;;;;5124699;28;20203;-68
2021/05/15 00:25:08;;;;;;;0.10;0.10;;;;;;;;;;5125327;28;20254;-69
2021/05/15 00:27:35;;;;;;;0.10;0.10;;;;;;;;;;5125737;28;20384;-69
2021/05/15 00:30:00;;;;;;;0.10;0.10;;;;;;;;;;5125764;28;20233;-68
2021/05/15 00:32:27;;;;;;;0.10;0.10;;;;;;;;;;5124795;28;20219;-69
2021/05/15 00:34:53;;;;;;;0.10;0.10;;;;;;;;;;5123402;28;20225;-70
2021/05/15 00:37:18;;;;;;;0.10;0.10;;;;;;;;;;5113000;28;20224;-70
2021/05/15 00:39:44;;;;;;;0.10;0.10;;;;;;;;;;5137950;27;20213;-68
2021/05/15 00:42:10;;;;;;;0.10;0.10;;;;;;;;;;5124705;28;20203;-68
2021/05/15 00:44:44;;;;;;;0.10;0.10;;;;;;;;;;5124910;28;20464;-68
2021/05/15 00:47:12;;;;;;;0.10;0.10;;;;;;;;;;5118033;28;20257;-68
2021/05/15 00:49:38;;;;;;;0.10;0.10;;;;;;;;;;5118019;28;20207;-68
2021/05/15 00:52:04;;;;;;;0.10;0.10;;;;;;;;;;5124204;28;20207;-70
2021/05/15 00:54:30;;;;;;;0.17;0.17;;;;;;;;;;5124104;28;20260;-68
2021/05/15 00:56:56;;;;;;;0.10;0.10;;;;;;;;;;5123883;27;20285;-68
2021/05/15 00:59:22;;;;;;;0.10;0.10;;;;;;;;;;5113664;28;20505;-70
2021/05/15 01:01:48;;;;;;;0.10;0.10;;;;;;;;;;5123713;28;20213;-71
2021/05/15 01:04:13;;;;;;;0.10;0.10;;;;;;;;;;5123957;28;20214;-70
2021/05/15 01:06:40;;;;;;;0.10;0.10;;;;;;;;;;5123332;28;20376;-67
2021/05/15 01:09:06;;;;;;;0.10;0.10;;;;;;;;;;5121777;28;20243;-69
2021/05/15 01:11:34;;;;;;;0.10;0.10;;;;;;;;;;5114014;28;20203;-70
2021/05/15 01:14:01;;;;;;;0.10;0.10;;;;;;;;;;5123173;28;20471;-68
2021/05/15 01:16:27;;;;;;;0.10;0.10;;;;;;;;;;5123844;28;20219;-69
2021/05/15 01:18:53;;;;;;;0.20;0.20;;;;;;;;;;5123904;28;20470;-69
2021/05/15 01:21:20;;;;;;;0.20;0.20;;;;;;;;;;5123895;28;20516;-68
2021/05/15 01:23:45;;;;;;;0.13;0.13;;;;;;;;;;5123757;28;20276;-69
2021/05/15 01:26:12;;;;;;;0.10;0.10;;;;;;;;;;5123875;28;20198;-69
2021/05/15 01:28:38;;;;;;;0.10;0.10;;;;;;;;;;5123931;28;20207;-68
2021/05/15 01:31:04;;;;;;;0.10;0.10;;;;;;;;;;5119094;28;20394;-67
2021/05/15 01:33:29;;;;;;;0.10;0.10;;;;;;;;;;5123571;28;20198;-69
2021/05/15 01:35:55;;;;;;;0.10;0.10;;;;;;;;;;5123728;28;20246;-68
2021/05/15 01:38:22;;;;;;;0.20;0.20;;;;;;;;;;5123781;28;20258;-69
2021/05/15 01:40:48;;;;;;;0.10;0.10;;;;;;;;;;5123488;28;20209;-69
2021/05/15 01:43:17;;;;;;;0.13;0.13;;;;;;;;;;5123341;28;20228;-68
2021/05/15 01:45:43;;;;;;;0.20;0.20;;;;;;;;;;5123537;28;20275;-68
2021/05/15 01:48:14;;;;;;;0.10;0.10;;;;;;;;;;5123444;28;20467;-68
2021/05/15 01:50:39;;;;;;;0.10;0.10;;;;;;;;;;5115107;28;20198;-68
2021/05/15 01:53:05;;;;;;;0.10;0.10;;;;;;;;;;5123955;28;20205;-69
2021/05/15 01:55:32;;;;;;;0.10;0.10;;;;;;;;;;5123836;28;20221;-69
2021/05/15 01:57:58;;;;;;;0.10;0.10;;;;;;;;;;5123760;28;20206;-69
2021/05/15 02:00:24;;;;;;;0.10;0.10;;;;;;;;;;5123454;28;20211;-69
2021/05/15 02:02:49;;;;;;;0.17;0.17;;;;;;;;;;5123464;28;20241;-68
2021/05/15 02:05:15;;;;;;;0.10;0.10;;;;;;;;;;5123323;28;20202;-69
2021/05/15 02:07:41;;;;;;;0.10;0.10;;;;;;;;;;5123251;28;20200;-68
2021/05/15 02:10:07;;;;;;;0.10;0.10;;;;;;;;;;5123723;28;20207;-69
2021/05/15 02:12:33;;;;;;;0.10;0.10;;;;;;;;;;5123482;28;20203;-69
2021/05/15 02:14:59;;;;;;;0.10;0.10;;;;;;;;;;5125045;28;20210;-68
2021/05/15 02:17:25;;;;;;;0.10;0.10;;;;;;;;;;5124610;28;20245;-70
2021/05/15 02:19:51;;;;;;;0.10;0.10;;;;;;;;;;5121999;28;20210;-68
2021/05/15 02:22:16;;;;;;;0.10;0.10;;;;;;;;;;5125189;28;20264;-68
2021/05/15 02:24:42;;;;;;;0.10;0.10;;;;;;;;;;5127335;28;20446;-69
2021/05/15 02:27:08;;;;;;;0.10;0.10;;;;;;;;;;5126902;28;20205;-69
2021/05/15 02:29:35;;;;;;;0.10;0.10;;;;;;;;;;5126819;28;20209;-69
2021/05/15 02:32:01;;;;;;;0.10;0.10;;;;;;;;;;5126648;28;20279;-69
2021/05/15 02:34:26;;;;;;;0.10;0.10;;;;;;;;;;5127144;28;20202;-69
2021/05/15 02:36:52;;;;;;;0.10;0.10;;;;;;;;;;5124656;28;20440;-68
2021/05/15 02:39:18;;;;;;;0.10;0.10;;;;;;;;;;5126522;28;20379;-69
2021/05/15 02:41:44;;;;;;;0.10;0.10;;;;;;;;;;5116064;28;20207;-68
2021/05/15 02:44:10;;;;;;;0.10;0.10;;;;;;;;;;5126565;28;20198;-68
2021/05/15 02:46:36;;;;;;;0.13;0.13;;;;;;;;;;5126610;28;20243;-68
2021/05/15 02:49:02;;;;;;;0.10;0.10;;;;;;;;;;5126618;28;20206;-68
2021/05/15 02:51:28;;;;;;;0.10;0.10;;;;;;;;;;5126607;28;20240;-69
2021/05/15 02:53:55;;;;;;;0.13;0.13;;;;;;;;;;5134739;27;20212;-69
2021/05/15 02:56:21;;;;;;;0.20;0.20;;;;;;;;;;5130852;27;20223;-69
2021/05/15 02:58:47;;;;;;;0.10;0.10;;;;;;;;;;5126517;28;20308;-69
2021/05/15 03:01:12;;;;;;;0.10;0.10;;;;;;;;;;5125970;28;20232;-68
2021/05/15 03:03:39;;;;;;;0.10;0.10;;;;;;;;;;5126542;28;20227;-68
2021/05/15 03:06:05;;;;;;;0.10;0.10;;;;;;;;;;5126073;28;20374;-68
2021/05/15 03:08:30;;;;;;;0.10;0.10;;;;;;;;;;5126262;28;20198;-68
2021/05/15 03:10:56;;;;;;;0.20;0.20;;;;;;;;;;5126510;28;20473;-68
2021/05/15 03:13:22;;;;;;;0.10;0.10;;;;;;;;;;5126296;28;20239;-68
2021/05/15 03:15:48;;;;;;;0.20;0.20;;;;;;;;;;5124939;28;20248;-68
2021/05/15 03:18:13;;;;;;;0.10;0.10;;;;;;;;;;5126253;28;20201;-68
2021/05/15 03:20:40;;;;;;;0.17;0.17;;;;;;;;;;5126081;28;20227;-70
2021/05/15 03:23:06;;;;;;;0.10;0.10;;;;;;;;;;5126568;28;20415;-68
2021/05/15 03:25:32;;;;;;;0.10;0.10;;;;;;;;;;5125880;28;20209;-70
2021/05/15 03:27:57;;;;;;;0.10;0.10;;;;;;;;;;5125664;28;20203;-69
2021/05/15 03:30:23;;;;;;;0.10;0.10;;;;;;;;;;5139731;27;20381;-69
2021/05/15 03:32:49;;;;;;;0.10;0.10;;;;;;;;;;5125975;28;20231;-68
2021/05/15 03:35:17;;;;;;;0.10;0.10;;;;;;;;;;5133761;27;20493;-67
2021/05/15 03:37:44;;;;;;;0.10;0.10;;;;;;;;;;5124959;28;20226;-68
2021/05/15 03:40:10;;;;;;;0.10;0.10;;;;;;;;;;5125609;28;20206;-68
2021/05/15 03:42:36;;;;;;;0.10;0.10;;;;;;;;;;5125488;28;20212;-68
2021/05/15 03:45:02;;;;;;;0.10;0.10;;;;;;;;;;5125261;28;20226;-68
2021/05/15 03:47:28;;;;;;;0.10;0.10;;;;;;;;;;5125590;28;20197;-68
2021/05/15 03:49:54;;;;;;;0.10;0.10;;;;;;;;;;5125304;28;20399;-68
2021/05/15 03:52:19;;;;;;;0.10;0.10;;;;;;;;;;5125766;28;20204;-69
2021/05/15 03:54:46;;;;;;;0.10;0.10;;;;;;;;;;5125296;28;20220;-69
2021/05/15 03:57:12;;;;;;;0.10;0.10;;;;;;;;;;5125260;28;20226;-69
2021/05/15 03:59:38;;;;;;;0.20;0.20;;;;;;;;;;5124568;28;20312;-69
2021/05/15 04:02:03;;;;;;;0.10;0.10;;;;;;;;;;5124732;28;20202;-68
2021/05/15 04:04:29;;;;;;;0.10;0.10;;;;;;;;;;5124526;28;20198;-68
2021/05/15 04:06:55;;;;;;;0.10;0.10;;;;;;;;;;5124944;28;20535;-68
2021/05/15 04:09:21;;;;;;;0.10;0.10;;;;;;;;;;5125073;28;20390;-68
2021/05/15 04:11:47;;;;;;;0.13;0.13;;;;;;;;;;5124996;28;20265;-69
2021/05/15 04:14:26;;;;;;;0.10;0.10;;;;;;;;;;5125118;28;20280;-68
2021/05/15 04:17:02;;;;;;;0.20;0.20;;;;;;;;;;5123074;28;20233;-69
2021/05/15 04:19:28;;;;;;;0.10;0.10;;;;;;;;;;5124981;28;20270;-69
2021/05/15 04:21:54;;;;;;;0.10;0.10;;;;;;;;;;5126052;27;20217;-68
2021/05/15 04:24:23;;;;;;;0.10;0.10;;;;;;;;;;5125414;27;20347;-70
2021/05/15 04:26:50;;;;;;;0.10;0.10;;;;;;;;;;5124797;28;20360;-68
2021/05/15 04:29:16;;;;;;;0.10;0.10;;;;;;;;;;5124871;28;20519;-69
2021/05/15 04:31:42;;;;;;;0.10;0.10;;;;;;;;;;5124647;28;20229;-69
2021/05/15 04:34:08;;;;;;;0.10;0.10;;;;;;;;;;5124384;28;20248;-69
2021/05/15 04:36:33;;;;;;;0.10;0.10;;;;;;;;;;5124270;28;20229;-68
2021/05/15 04:38:59;;;;;;;0.10;0.10;;;;;;;;;;5124822;28;20208;-68
2021/05/15 04:41:25;;;;;;;0.10;0.10;;;;;;;;;;5133073;27;20211;-69
2021/05/15 04:43:51;;;;;;;0.10;0.10;;;;;;;;;;5124632;28;20201;-68
2021/05/15 04:46:17;;;;;;;0.10;0.10;;;;;;;;;;5124375;28;20385;-68
2021/05/15 04:48:44;;;;;;;0.10;0.10;;;;;;;;;;5124299;28;20198;-68
2021/05/15 04:51:10;;;;;;;0.10;0.10;;;;;;;;;;5124283;28;20213;-69
2021/05/15 04:53:36;;;;;;;0.20;0.20;;;;;;;;;;5125624;27;20478;-69
2021/05/15 04:56:02;;;;;;;0.10;0.10;;;;;;;;;;5129236;27;20204;-68
2021/05/15 04:58:27;;;;;;;0.10;0.10;;;;;;;;;;5129799;27;20216;-69
2021/05/15 05:00:54;;;;;;;0.17;0.17;;;;;;;;;;5126240;27;20201;-69
2021/05/15 05:03:20;;;;;;;0.10;0.10;;;;;;;;;;5128876;27;20208;-69
2021/05/15 05:05:46;;;;;;;0.10;0.10;;;;;;;;;;5126733;27;20198;-68
2021/05/15 05:08:11;;;;;;;0.10;0.10;;;;;;;;;;5129455;27;20210;-68
2021/05/15 05:10:37;;;;;;;0.10;0.10;;;;;;;;;;5123744;27;20490;-68
2021/05/15 05:13:03;;;;;;;1.13;0.97;;;;;;;;;;5132271;27;20213;-69
2021/05/15 05:15:29;;;;;;;0.10;0.10;;;;;;;;;;5126671;27;20265;-68
2021/05/15 05:17:55;;;;;;;0.20;0.20;;;;;;;;;;5128415;28;20416;-68
2021/05/15 05:20:21;;;;;;;0.10;0.10;;;;;;;;;;5126212;28;20199;-68
2021/05/15 05:22:47;;;;;;;0.10;0.10;;;;;;;;;;5130426;28;20213;-68
2021/05/15 05:25:14;;;;;;;0.10;0.10;;;;;;;;;;5129372;28;20229;-69
2021/05/15 05:27:41;;;;;;;0.10;0.10;;;;;;;;;;5126309;28;20386;-68
2021/05/15 05:30:07;;;;;;;0.37;0.37;;;;;;;;;;5126981;28;20262;-69
2021/05/15 05:32:33;;;;;;;0.10;0.10;;;;;;;;;;5128838;28;20217;-69
2021/05/15 05:34:59;;;;;;;0.10;0.10;;;;;;;;;;5126504;28;20218;-69
2021/05/15 05:37:25;;;;;;;0.10;0.10;;;;;;;;;;5127932;28;20525;-68
2021/05/15 05:39:52;;;;;;;0.10;0.10;;;;;;;;;;5125946;28;20261;-72
2021/05/15 05:42:17;;;;;;;0.13;0.13;;;;;;;;;;5121392;28;20517;-70
2021/05/15 05:44:44;;;;;;;0.10;0.10;;;;;;;;;;5129103;28;20198;-70
2021/05/15 05:47:09;;;;;;;0.20;0.20;;;;;;;;;;5131893;28;20474;-67
2021/05/15 05:49:35;;;;;;;0.10;0.10;;;;;;;;;;5130954;28;20260;-70
2021/05/15 05:52:02;;;;;;;0.10;0.10;;;;;;;;;;5125833;27;20203;-69
2021/05/15 05:54:28;;;;;;;0.10;0.10;;;;;;;;;;5131338;27;20202;-68
2021/05/15 05:56:53;;;;;;;0.20;0.20;;;;;;;;;;5130069;27;20222;-68
2021/05/15 05:59:19;;;;;;;0.10;0.10;;;;;;;;;;5132219;27;20198;-69
2021/05/15 06:01:45;;;;;;;0.10;0.10;;;;;;;;;;5127414;28;20222;-68
2021/05/15 06:04:11;;;;;;;0.10;0.10;;;;;;;;;;5130252;27;20213;-68
2021/05/15 06:06:36;;;;;;;0.10;0.10;;;;;;;;;;5130026;27;20376;-68
2021/05/15 06:09:03;;;;;;;0.10;0.10;;;;;;;;;;5137245;27;20362;-69
2021/05/15 06:11:29;;;;;;;0.10;0.10;;;;;;;;;;5126676;28;20215;-68
2021/05/15 06:13:55;;;;;;;0.10;0.10;;;;;;;;;;5127104;28;20275;-68
2021/05/15 06:16:21;;;;;;;0.10;0.10;;;;;;;;;;5124192;28;20261;-68
2021/05/15 06:18:46;;;;;;;0.10;0.10;;;;;;;;;;5129437;27;20214;-68
2021/05/15 06:21:12;;;;;;;0.10;0.10;;;;;;;;;;5132507;27;20303;-69
2021/05/15 06:23:38;;;;;;;0.10;0.10;;;;;;;;;;5126547;28;20196;-69
2021/05/15 06:26:08;;;;;;;0.10;0.10;;;;;;;;;;5131675;27;20499;-69
2021/05/15 06:28:34;;;;;;;0.10;0.10;;;;;;;;;;5128733;27;20499;-69
2021/05/15 06:30:59;;;;;;;0.10;0.10;;;;;;;;;;5126854;28;20280;-69
2021/05/15 06:33:25;;;;;;;0.20;0.20;;;;;;;;;;5131979;27;20245;-69
2021/05/15 06:35:51;;;;;;;0.10;0.10;;;;;;;;;;5135137;27;20212;-69
2021/05/15 06:38:18;;;;;;;0.10;0.10;;;;;;;;;;5128215;27;20234;-68
2021/05/15 06:40:44;;;;;;;0.10;0.10;;;;;;;;;;5130775;27;20200;-67
2021/05/15 06:43:10;;;;;;;0.10;0.10;;;;;;;;;;5128801;27;20210;-68
2021/05/15 06:45:36;;;;;;;0.10;0.10;;;;;;;;;;5128143;27;20204;-67
2021/05/15 06:48:03;;;;;;;0.10;0.10;;;;;;;;;;5127447;27;20206;-68
2021/05/15 06:50:29;;;;;;;0.10;0.10;;;;;;;;;;5131673;27;20204;-68
2021/05/15 06:52:55;;;;;;;0.10;0.10;;;;;;;;;;5125654;27;20213;-68
2021/05/15 06:55:23;;;;;;;0.10;0.10;;;;;;;;;;5129698;27;20223;-68
2021/05/15 06:57:48;;;;;;;0.10;0.10;;;;;;;;;;5128590;27;20226;-69
2021/05/15 07:00:16;;;;;;;0.10;0.10;;;;;;;;;;5131310;27;20204;-69
2021/05/15 07:02:41;;;;;;;0.43;0.43;;;;;;;;;;5126148;28;20205;-68
2021/05/15 07:05:08;;;;;;;0.10;0.10;;;;;;;;;;5129993;27;20520;-68
2021/05/15 07:07:33;;;;;;;0.10;0.10;;;;;;;;;;5126291;28;20202;-68
2021/05/15 07:09:59;;;;;;;0.07;0.07;;;;;;;;;;5129301;27;20214;-69
2021/05/15 07:12:25;;;;;;;0.10;0.10;;;;;;;;;;5126582;28;20214;-68
2021/05/15 07:14:51;;;;;;;0.10;0.10;;;;;;;;;;5125789;28;20243;-69
2021/05/15 07:17:22;;;;;;;0.10;0.10;;;;;;;;;;5125826;28;20242;-68
2021/05/15 07:19:48;;;;;;;0.10;0.10;;;;;;;;;;5137657;27;20190;-68
2021/05/15 07:22:14;;;;;;;0.10;0.10;;;;;;;;;;5121753;27;20257;-68
2021/05/15 07:24:39;;;;;;;0.10;0.10;;;;;;;;;;5123994;28;20198;-68
2021/05/15 07:27:05;;;;;;;0.10;0.10;;;;;;;;;;5118219;28;20378;-70
2021/05/15 07:29:31;;;;;;;0.10;0.10;;;;;;;;;;5127820;27;20202;-68
2021/05/15 07:31:57;;;;;;;0.10;0.10;;;;;;;;;;5128478;27;20227;-69
2021/05/15 07:34:24;;;;;;;0.10;0.10;;;;;;;;;;5122063;27;20203;-69
2021/05/15 07:36:50;;;;;;;0.10;0.10;;;;;;;;;;5125295;28;20251;-68
2021/05/15 07:39:15;;;;;;;0.10;0.10;;;;;;;;;;5125317;28;20206;-68
2021/05/15 07:41:41;;;;;;;0.10;0.10;;;;;;;;;;5125229;28;20513;-69
2021/05/15 07:44:07;;;;;;;0.10;0.10;;;;;;;;;;5125436;28;20201;-69
2021/05/15 07:46:33;;;;;;;0.10;0.10;;;;;;;;;;5114047;28;20199;-69
2021/05/15 07:48:59;;;;;;;0.10;0.10;;;;;;;;;;5125805;28;20244;-68
2021/05/15 07:51:27;;;;;;;0.10;0.10;;;;;;;;;;5125423;28;20205;-69
2021/05/15 07:53:53;;;;;;;0.10;0.10;;;;;;;;;;5125493;28;20292;-68
2021/05/15 07:56:19;;;;;;;0.10;0.10;;;;;;;;;;5112613;28;20478;-69
2021/05/15 07:58:45;;;;;;;0.10;0.10;;;;;;;;;;5125284;28;20207;-68
2021/05/15 08:01:11;;;;;;;0.10;0.10;;;;;;;;;;5125164;28;20524;-67
2021/05/15 08:03:37;;;;;;;0.10;0.10;;;;;;;;;;5125094;28;20266;-69
2021/05/15 08:06:03;;;;;;;0.10;0.10;;;;;;;;;;5125424;28;20204;-68
2021/05/15 08:08:30;;;;;;;0.10;0.10;;;;;;;;;;5122667;28;20198;-68
2021/05/15 08:10:56;;;;;;;0.10;0.10;;;;;;;;;;5124791;28;20211;-63
2021/05/15 08:13:23;;;;;;;0.10;0.10;;;;;;;;;;5124843;27;20246;-63
2021/05/15 08:15:49;;;;;;;0.00;0.00;;;;;;;;;;5124151;28;20199;-63
2021/05/15 08:18:15;;;;;;;0.10;0.10;;;;;;;;;;5124577;28;20571;-64
2021/05/15 08:20:41;;;;;;;0.10;0.10;;;;;;;;;;5124740;28;20507;-64
2021/05/15 08:23:06;;;;;;;0.10;0.10;;;;;;;;;;5124705;28;20236;-62
2021/05/15 08:25:33;;;;;;;0.10;0.10;;;;;;;;;;5125187;27;20488;-63
2021/05/15 08:28:02;;;;;;;0.00;0.00;;;;;;;;;;5124484;28;20210;-63
2021/05/15 08:30:30;;;;;;;0.10;0.10;;;;;;;;;;5124303;28;20204;-62
2021/05/15 08:32:56;;;;;;;1.90;0.77;;;;;;;;;;5124476;27;20224;-64
2021/05/15 08:35:23;;;;;;;0.00;0.00;;;;;;;;;;5126319;27;20251;-63
2021/05/15 08:37:49;;;;;;;0.00;0.00;;;;;;;;;;5126804;27;20417;-62
2021/05/15 08:40:15;;;;;;;0.00;0.00;;;;;;;;;;5122793;28;20199;-62
2021/05/15 08:42:42;;;;;;;0.10;0.10;;;;;;;;;;5116457;28;20205;-63
2021/05/15 08:45:09;;;;;;;0.10;0.10;;;;;;;;;;5128114;27;20207;-66
2021/05/15 08:47:36;;;;;;;0.10;0.10;;;;;;;;;;5123987;28;20221;-66
2021/05/15 08:50:04;;;;;;;0.10;0.10;;;;;;;;;;5124368;27;20206;-70
2021/05/15 08:52:31;;;;;;;0.10;0.10;;;;;;;;;;5111324;28;20487;-70
2021/05/15 08:54:57;;;;;;;0.10;0.10;;;;;;;;;;5123718;28;20220;-70
2021/05/15 08:57:22;;;;;;;0.10;0.10;;;;;;;;;;5129604;27;20420;-72
2021/05/15 08:59:50;;;;;;;0.10;0.10;;;;;;;;;;5126409;27;20265;-71
2021/05/15 09:02:16;;;;;;;0.10;0.10;;;;;;;;;;5132332;27;20388;-70
2021/05/15 09:04:42;;;;;;;0.10;0.10;;;;;;;;;;5124123;27;20439;-72
2021/05/15 09:07:10;;;;;;;0.10;0.10;;;;;;;;;;5123562;27;20195;-68
2021/05/15 09:09:35;;;;;;;0.00;0.00;;;;;;;;;;5122999;28;20203;-68
2021/05/15 09:12:01;;;;;;;0.10;0.10;;;;;;;;;;5123577;28;20407;-70
2021/05/15 09:14:27;;;;;;;0.10;0.10;;;;;;;;;;5125077;28;20203;-68
2021/05/15 09:16:55;;;;;;;0.10;0.10;;;;;;;;;;5125412;27;20240;-62
2021/05/15 09:19:21;;;;;;;0.03;0.03;;;;;;;;;;5124174;28;20513;-62
2021/05/15 09:21:54;;;;;;;0.03;0.03;;;;;;;;;;5134400;28;20198;-62
2021/05/15 09:24:26;;;;;;;0.00;0.00;;;;;;;;;;5121092;28;20204;-62
2021/05/15 09:26:52;;;;;;;0.10;0.10;;;;;;;;;;5126853;27;20191;-62
2021/05/15 09:29:17;;;;;;;0.10;0.10;;;;;;;;;;5131127;27;20215;-63
2021/05/15 09:31:45;;;;;;;0.10;0.10;;;;;;;;;;5133827;27;20223;-62
2021/05/15 09:34:12;;;;;;;0.00;0.00;;;;;;;;;;5122046;28;20204;-62
2021/05/15 09:36:39;;;;;;;0.10;0.10;;;;;;;;;;5127313;28;20229;-63
2021/05/15 09:39:06;;;;;;;0.10;0.10;;;;;;;;;;5123477;28;20417;-62
2021/05/15 09:41:33;;;;;;;0.10;0.10;;;;;;;;;;5125456;27;20385;-62
2021/05/15 09:43:59;;;;;;;0.00;0.00;;;;;;;;;;5127832;28;20447;-63
2021/05/15 09:46:25;;;;;;;0.07;0.07;;;;;;;;;;5127853;28;20214;-63
2021/05/15 09:48:51;;;;;;;0.03;0.03;;;;;;;;;;5125914;28;20492;-63
2021/05/15 09:51:18;;;;;;;0.10;0.10;;;;;;;;;;5127349;28;20205;-64
2021/05/15 09:53:44;;;;;;;0.03;0.03;;;;;;;;;;5127753;28;20378;-63
2021/05/15 09:56:10;;;;;;;0.10;0.10;;;;;;;;;;5127630;28;20207;-63
2021/05/15 09:58:36;;;;;;;0.10;0.10;;;;;;;;;;5127476;28;20458;-63
2021/05/15 10:01:02;;;;;;;0.10;0.10;;;;;;;;;;5127317;28;20208;-64
2021/05/15 10:03:29;;;;;;;0.07;0.07;;;;;;;;;;5127111;28;20205;-62
2021/05/15 10:06:14;;;;;;;0.00;0.00;;;;;;;;;;5127341;28;20210;-63
2021/05/15 10:08:41;;;;;;;0.10;0.10;;;;;;;;;;5127152;28;20196;-63
2021/05/15 10:11:07;;;;;;;0.10;0.10;;;;;;;;;;5127072;28;20209;-61
2021/05/15 10:13:33;;;;;;;0.10;0.10;;;;;;;;;;5127684;28;20215;-62
2021/05/15 10:16:00;;;;;;;0.03;0.03;;;;;;;;;;5127859;28;20200;-62
2021/05/15 10:18:26;;;;;;;0.10;0.10;;;;;;;;;;5126241;28;20314;-62
2021/05/15 10:20:52;;;;;;;0.10;0.10;;;;;;;;;;5126457;28;20213;-64
2021/05/15 10:23:19;;;;;;;0.10;0.10;;;;;;;;;;5127685;28;20548;-63
2021/05/15 10:25:47;;;;;;;0.10;0.10;;;;;;;;;;5127314;28;20203;-64
2021/05/15 10:28:24;;;;;;;0.00;0.00;;;;;;;;;;5126781;28;20267;-64
2021/05/15 10:30:50;;;;;;;0.10;0.10;;;;;;;;;;5126957;27;20349;-63
2021/05/15 10:33:15;;;;;;;0.00;0.00;;;;;;;;;;5127564;28;20289;-63
2021/05/15 10:35:43;;;;;;;0.10;0.10;;;;;;;;;;5125590;28;20198;-64
2021/05/15 10:38:10;;;;;;;0.10;0.10;;;;;;;;;;5118762;28;20233;-64
2021/05/15 10:40:43;;;;;;;0.10;0.10;;;;;;;;;;5127198;28;20280;-64
2021/05/15 10:43:10;;;;;;;0.10;0.10;;;;;;;;;;5127167;28;20552;-63
2021/05/15 10:45:36;;;;;;;0.10;0.10;;;;;;;;;;5126759;28;20397;-64
2021/05/15 10:48:12;;;;;;;0.10;0.10;;;;;;;;;;5126231;28;20204;-63
2021/05/15 10:50:47;;;;;;;0.10;0.10;;;;;;;;;;5126912;28;20210;-62
2021/05/15 10:53:17;;;;;;;0.00;0.00;;;;;;;;;;5126559;28;20229;-63
2021/05/15 10:55:43;;;;;;;0.10;0.10;;;;;;;;;;5127202;27;21034;-65
2021/05/15 10:58:10;;;;;;;0.10;0.10;;;;;;;;;;5125406;27;20263;-63
2021/05/15 11:00:36;;;;;;;0.10;0.10;;;;;;;;;;5132594;27;20207;-62
2021/05/15 11:03:02;;;;;;;0.10;0.10;;;;;;;;;;5126426;27;20258;-63
2021/05/15 11:05:30;;;;;;;0.10;0.10;;;;;;;;;;5130542;27;20201;-65
2021/05/15 11:07:56;;;;;;;0.10;0.10;;;;;;;;;;5128689;27;20229;-63
2021/05/15 11:10:22;;;;;;;0.10;0.10;;;;;;;;;;5125681;28;20223;-66
2021/05/15 11:12:51;;;;;;;0.00;0.00;;;;;;;;;;5131798;27;20200;-64
2021/05/15 11:15:19;;;;;;;0.10;0.10;;;;;;;;;;5137435;27;20199;-63
2021/05/15 11:17:59;;;;;;;0.00;0.00;;;;;;;;;;5131298;27;20231;-64
2021/05/15 11:20:24;;;;;;;0.03;0.03;;;;;;;;;;5125531;27;20194;-63
2021/05/15 11:22:51;;;;;;;0.10;0.10;;;;;;;;;;5130891;27;20205;-65
2021/05/15 11:25:18;;;;;;;0.10;0.10;;;;;;;;;;5127780;27;20230;-66
2021/05/15 11:27:45;;;;;;;0.10;0.10;;;;;;;;;;5130522;27;20215;-63
2021/05/15 11:30:13;;;;;;;0.10;0.10;;;;;;;;;;5127403;27;20208;-64
2021/05/15 11:32:40;;;;;;;0.00;0.00;;;;;;;;;;5123083;27;20247;-64
2021/05/15 11:35:07;;;;;;;5.53;5.20;;;;;;;;;;5130011;27;20214;-63
2021/05/15 11:37:33;;;;;;;0.00;0.00;;;;;;;;;;5125341;28;20226;-64
2021/05/15 11:39:59;;;;;;;0.10;0.10;;;;;;;;;;5125142;28;20504;-61
2021/05/15 11:42:29;;;;;;;0.00;0.00;;;;;;;;;;5125662;28;20273;-62
2021/05/15 11:44:55;;;;;;;0.08;0.08;;;;;;;;;;5125373;28;20202;-64
2021/05/15 11:47:22;;;;;;;0.00;0.00;;;;;;;;;;5125482;28;20201;-65
2021/05/15 11:49:55;;;;;;;0.10;0.10;;;;;;;;;;5124335;28;20196;-62
2021/05/15 11:52:28;;;;;;;0.00;0.00;;;;;;;;;;5125302;28;20209;-63
2021/05/15 11:54:54;;;;;;;0.00;0.00;;;;;;;;;;5125675;28;20227;-64
2021/05/15 11:57:24;;;;;;;0.10;0.10;;;;;;;;;;5125177;28;20297;-64
2021/05/15 11:59:50;;;;;;;0.05;0.05;;;;;;;;;;5125172;28;20214;-63
2021/05/15 12:02:16;;;;;;;0.08;0.08;;;;;;;;;;5124789;28;20249;-63
2021/05/15 12:04:42;;;;;;;0.00;0.00;;;;;;;;;;5124753;28;20226;-65
2021/05/15 12:07:08;;;;;;;0.10;0.10;;;;;;;;;;5125003;28;20354;-63
2021/05/15 12:09:34;;;;;;;0.10;0.10;;;;;;;;;;5125173;28;20260;-64
2021/05/15 12:12:01;;;;;;;0.10;0.10;;;;;;;;;;5124929;28;20208;-63
2021/05/15 12:14:27;;;;;;;0.00;0.00;;;;;;;;;;5124849;28;20220;-64
2021/05/15 12:16:53;;;;;;;0.10;0.10;;;;;;;;;;5124579;28;20291;-63
2021/05/15 12:19:20;;;;;;;0.10;0.10;;;;;;;;;;5124768;28;20285;-63
2021/05/15 12:21:56;;;;;;;0.00;0.00;;;;;;;;;;5122582;27;20225;-64
2021/05/15 12:24:23;;;;;;;0.00;0.00;;;;;;;;;;5131662;27;20375;-64
2021/05/15 12:26:49;;;;;;;0.00;0.00;;;;;;;;;;5129346;27;20204;-63
2021/05/15 12:29:15;;;;;;;0.00;0.00;;;;;;;;;;5128321;27;20200;-63
2021/05/15 12:31:41;;;;;;;0.10;0.10;;;;;;;;;;5129345;27;20255;-62
2021/05/15 12:34:07;;;;;;;0.00;0.00;;;;;;;;;;5124405;28;20203;-64
2021/05/15 12:36:34;;;;;;;0.08;0.08;;;;;;;;;;5124344;28;20216;-64
2021/05/15 12:39:00;;;;;;;0.10;0.10;;;;;;;;;;5134049;27;20233;-64
2021/05/15 12:41:33;;;;;;;0.00;0.00;;;;;;;;;;5118807;28;20229;-64
2021/05/15 12:44:03;;;;;;;0.10;0.10;;;;;;;;;;5123261;28;20222;-64
2021/05/15 12:46:30;;;;;;;0.10;0.10;;;;;;;;;;5124321;28;20214;-64
2021/05/15 12:48:57;;;;;;;0.00;0.00;;;;;;;;;;5124197;28;20207;-64
2021/05/15 12:51:28;;;;;;;0.00;0.00;;;;;;;;;;5123919;28;20279;-63
2021/05/15 12:53:53;;;;;;;0.00;0.00;;;;;;;;;;5124065;28;20266;-67
2021/05/15 12:56:27;;;;;;;0.00;0.00;;;;;;;;;;5123804;28;20273;-64
2021/05/15 12:58:54;;;;;;;0.00;0.00;;;;;;;;;;5114941;28;20511;-65
2021/05/15 13:01:22;;;;;;;0.00;0.00;;;;;;;;;;5121001;28;20218;-64
2021/05/15 13:03:48;;;;;;;0.08;0.08;;;;;;;;;;5118580;27;20362;-66
2021/05/15 13:06:15;;;;;;;0.00;0.00;;;;;;;;;;5124561;27;20319;-67
2021/05/15 13:08:41;;;;;;;0.00;0.00;;;;;;;;;;5130111;27;20206;-65
2021/05/15 13:11:10;;;;;;;0.10;0.10;;;;;;;;;;5124160;28;20200;-64
2021/05/15 13:13:36;;;;;;;0.10;0.10;;;;;;;;;;5124621;27;20244;-64
2021/05/15 13:16:04;;;;;;;0.08;0.08;;;;;;;;;;5125719;27;20536;-64
2021/05/15 13:18:30;;;;;;;0.08;0.08;;;;;;;;;;5128656;27;20289;-65
2021/05/15 13:20:56;;;;;;;0.00;0.00;;;;;;;;;;5123444;28;20220;-65
2021/05/15 13:23:21;;;;;;;0.00;0.00;;;;;;;;;;5129099;28;20465;-65
2021/05/15 13:25:47;;;;;;;0.00;0.00;;;;;;;;;;5133982;28;20250;-64
2021/05/15 13:28:13;;;;;;;0.10;0.10;;;;;;;;;;5126624;27;20266;-66
2021/05/15 13:30:41;;;;;;;0.00;0.00;;;;;;;;;;5126006;28;20202;-67
2021/05/15 13:33:08;;;;;;;0.00;0.00;;;;;;;;;;5131174;28;20228;-65
2021/05/15 13:35:33;;;;;;;0.10;0.10;;;;;;;;;;5126425;28;20230;-64
2021/05/15 13:37:59;;;;;;;0.10;0.10;;;;;;;;;;5132140;28;20222;-67
2021/05/15 13:40:25;;;;;;;0.10;0.10;;;;;;;;;;5124469;28;20198;-64
2021/05/15 13:42:50;;;;;;;0.10;0.10;;;;;;;;;;5129056;28;20205;-65
2021/05/15 13:45:16;;;;;;;0.00;0.00;;;;;;;;;;5126184;28;20267;-65
2021/05/15 13:47:49;;;;;;;0.00;0.00;;;;;;;;;;5127662;28;20198;-65
2021/05/15 13:50:16;;;;;;;0.00;0.00;;;;;;;;;;5128182;28;20201;-65
2021/05/15 13:52:42;;;;;;;0.10;0.10;;;;;;;;;;5124994;27;20269;-65
2021/05/15 13:55:08;;;;;;;0.10;0.10;;;;;;;;;;5130212;28;20270;-67
2021/05/15 13:57:34;;;;;;;0.00;0.00;;;;;;;;;;5124383;27;20220;-68
2021/05/15 14:00:00;;;;;;;0.00;0.00;;;;;;;;;;5129971;28;20232;-69
2021/05/15 14:02:25;;;;;;;0.00;0.00;;;;;;;;;;5131012;28;20208;-71
2021/05/15 14:04:51;;;;;;;0.10;0.10;;;;;;;;;;5122375;28;20229;-70
2021/05/15 14:07:18;;;;;;;0.10;0.10;;;;;;;;;;5128154;28;20196;-70
2021/05/15 14:09:43;;;;;;;0.10;0.10;;;;;;;;;;5125229;28;20511;-66
2021/05/15 14:12:09;;;;;;;0.00;0.00;;;;;;;;;;5123100;28;20216;-69
2021/05/15 14:14:35;;;;;;;0.00;0.00;;;;;;;;;;5134621;27;20223;-69
2021/05/15 14:17:01;;;;;;;0.00;0.00;;;;;;;;;;5128272;27;20412;-69
2021/05/15 14:19:27;;;;;;;0.00;0.00;;;;;;;;;;5129510;27;20599;-68
2021/05/15 14:21:53;;;;;;;0.08;0.08;;;;;;;;;;5127275;27;20305;-67
2021/05/15 14:24:19;;;;;;;0.10;0.10;;;;;;;;;;5126375;27;20226;-65
2021/05/15 14:26:45;;;;;;;0.10;0.10;;;;;;;;;;5129239;27;20379;-65
2021/05/15 14:29:11;;;;;;;0.10;0.10;;;;;;;;;;5131422;27;20202;-65
2021/05/15 14:31:37;;;;;;;0.05;0.05;;;;;;;;;;5131606;27;20222;-67
2021/05/15 14:34:03;;;;;;;0.10;0.10;;;;;;;;;;5129018;27;20521;-68
2021/05/15 14:36:28;;;;;;;0.10;0.10;;;;;;;;;;5131949;27;20217;-66
2021/05/15 14:38:54;;;;;;;0.00;0.00;;;;;;;;;;5131763;27;20242;-68